Time;durP1;ratioP1;P1;durP2;ratioP2;P2;SDS_P1;SDS_P2;PMS_P1;PMS_P2;Temp;Humidity;BMP_temperature;BMP_pressure;BME280_temperature;BME280_humidity;BME280_pressure;Samples;Min_cycle;Max_cycle;Signal;HPM_P1;HPM_P2
2022/07/17 00:00:25;;;;;;;1.63;1.10;;;13.70;99.90;;;;;;5012341;28;20463;-74
2022/07/17 00:02:51;;;;;;;1.50;1.10;;;13.70;99.90;;;;;;5011715;28;20231;-74
2022/07/17 00:05:16;;;;;;;3.53;1.20;;;13.70;99.90;;;;;;5012036;28;20183;-74
2022/07/17 00:07:42;;;;;;;2.70;1.40;;;13.60;99.90;;;;;;5011774;28;20635;-74
2022/07/17 00:10:08;;;;;;;3.37;2.10;;;13.60;99.90;;;;;;5012014;28;20182;-74
2022/07/17 00:12:33;;;;;;;1.10;1.00;;;13.70;99.90;;;;;;5011704;28;20176;-74
2022/07/17 00:14:59;;;;;;;2.53;1.07;;;13.70;99.90;;;;;;5011509;28;20450;-74
2022/07/17 00:17:24;;;;;;;1.20;1.10;;;13.60;99.90;;;;;;5011722;28;20658;-74
2022/07/17 00:19:50;;;;;;;3.63;1.30;;;13.60;99.90;;;;;;5012066;28;20271;-74
2022/07/17 00:22:16;;;;;;;1.00;0.90;;;13.50;99.90;;;;;;5011876;28;20168;-74
2022/07/17 00:24:41;;;;;;;2.60;1.47;;;13.50;99.90;;;;;;5011734;28;20201;-74
2022/07/17 00:27:07;;;;;;;2.80;1.10;;;13.40;99.90;;;;;;5011994;28;20639;-74
2022/07/17 00:29:32;;;;;;;1.00;0.90;;;13.30;99.90;;;;;;5012591;28;20681;-74
2022/07/17 00:31:58;;;;;;;1.30;1.20;;;13.30;99.90;;;;;;5011745;28;20183;-73
2022/07/17 00:34:24;;;;;;;1.93;1.43;;;13.30;99.90;;;;;;5011898;28;20220;-74
2022/07/17 00:36:49;;;;;;;1.73;1.47;;;13.30;99.90;;;;;;5012015;28;20271;-74
2022/07/17 00:39:15;;;;;;;1.70;1.00;;;13.20;99.90;;;;;;5014221;28;21122;-74
2022/07/17 00:41:43;;;;;;;2.33;1.00;;;13.10;99.90;;;;;;5015596;28;20164;-74
2022/07/17 00:44:13;;;;;;;2.07;1.17;;;13.20;99.90;;;;;;5015549;28;20176;-74
2022/07/17 00:46:40;;;;;;;2.83;1.20;;;13.20;99.90;;;;;;5015385;28;20410;-74
2022/07/17 00:49:07;;;;;;;2.10;0.90;;;13.10;99.90;;;;;;5015642;28;20518;-74
2022/07/17 00:51:33;;;;;;;2.13;1.70;;;13.00;99.90;;;;;;5015531;28;20411;-74
2022/07/17 00:53:59;;;;;;;1.00;0.97;;;13.00;99.90;;;;;;5015260;28;20513;-74
2022/07/17 00:56:28;;;;;;;2.47;1.30;;;12.90;99.90;;;;;;5015283;28;20461;-74
2022/07/17 00:58:54;;;;;;;3.07;1.00;;;13.00;99.90;;;;;;5017149;28;20451;-74
2022/07/17 01:01:19;;;;;;;4.60;1.40;;;13.00;99.90;;;;;;5019519;28;20767;-74
2022/07/17 01:03:45;;;;;;;1.80;1.30;;;13.00;99.90;;;;;;5021497;28;20407;-74
2022/07/17 01:06:11;;;;;;;1.30;1.00;;;13.00;99.90;;;;;;5023174;28;20177;-74
2022/07/17 01:08:37;;;;;;;2.27;1.13;;;13.00;99.90;;;;;;5017425;28;20419;-74
2022/07/17 01:11:03;;;;;;;3.13;1.27;;;12.90;99.90;;;;;;5016435;28;20180;-74
2022/07/17 01:13:30;;;;;;;1.50;0.97;;;12.70;99.90;;;;;;5016613;28;20456;-73
2022/07/17 01:15:56;;;;;;;5.73;1.40;;;12.70;99.90;;;;;;5016071;28;20466;-73
2022/07/17 01:18:23;;;;;;;4.27;1.33;;;12.70;99.90;;;;;;5015733;28;20450;-74
2022/07/17 01:20:49;;;;;;;3.07;1.07;;;12.70;99.90;;;;;;5015842;28;20412;-74
2022/07/17 01:23:17;;;;;;;1.60;1.40;;;12.60;99.90;;;;;;5015980;28;20503;-73
2022/07/17 01:25:43;;;;;;;1.33;1.03;;;12.60;99.90;;;;;;5015895;28;20932;-73
2022/07/17 01:28:09;;;;;;;2.20;1.20;;;12.60;99.90;;;;;;5015635;28;20917;-74
2022/07/17 01:30:35;;;;;;;1.30;1.00;;;12.50;99.90;;;;;;5015595;28;20434;-74
2022/07/17 01:33:01;;;;;;;2.30;1.53;;;12.50;99.90;;;;;;5015392;28;20279;-73
2022/07/17 01:35:27;;;;;;;4.73;1.50;;;12.60;99.90;;;;;;5015066;28;20262;-74
2022/07/17 01:37:53;;;;;;;1.70;1.10;;;12.50;99.90;;;;;;5014909;28;20894;-73
2022/07/17 01:40:19;;;;;;;2.73;0.90;;;12.60;99.90;;;;;;5015141;28;20218;-73
2022/07/17 01:42:47;;;;;;;5.97;1.40;;;12.50;99.90;;;;;;5014960;28;20173;-73
2022/07/17 01:45:13;;;;;;;3.73;1.20;;;12.50;99.90;;;;;;5015345;28;20823;-73
2022/07/17 01:47:39;;;;;;;1.57;1.40;;;12.40;99.90;;;;;;5013944;28;20738;-72
2022/07/17 01:50:07;;;;;;;1.70;1.27;;;12.30;99.90;;;;;;5014330;28;20490;-73
2022/07/17 01:52:37;;;;;;;2.40;1.23;;;12.30;99.90;;;;;;5015043;28;20423;-73
2022/07/17 01:55:03;;;;;;;1.10;0.90;;;12.20;99.90;;;;;;5015304;28;20443;-74
2022/07/17 01:57:29;;;;;;;1.30;1.20;;;12.40;99.90;;;;;;5014642;28;20407;-73
2022/07/17 01:59:54;;;;;;;2.20;0.97;;;12.50;99.90;;;;;;5014838;28;20451;-74
2022/07/17 02:02:20;;;;;;;2.97;1.10;;;12.40;99.90;;;;;;5014711;28;20254;-73
2022/07/17 02:04:46;;;;;;;2.53;1.30;;;12.40;99.90;;;;;;5014482;28;20172;-73
2022/07/17 02:07:12;;;;;;;5.10;1.80;;;12.40;99.90;;;;;;5015644;28;20554;-73
2022/07/17 02:09:38;;;;;;;1.17;1.03;;;12.30;99.90;;;;;;5016977;28;20200;-74
2022/07/17 02:12:04;;;;;;;1.17;1.07;;;12.20;99.90;;;;;;5016249;28;20455;-74
2022/07/17 02:14:30;;;;;;;3.27;0.97;;;12.30;99.90;;;;;;5017019;28;20447;-74
2022/07/17 02:16:56;;;;;;;1.10;1.00;;;12.30;99.90;;;;;;5015008;28;20442;-74
2022/07/17 02:19:21;;;;;;;1.77;1.00;;;12.30;99.90;;;;;;5015597;28;20220;-74
2022/07/17 02:21:47;;;;;;;1.17;1.00;;;12.30;99.90;;;;;;5015642;28;20164;-74
2022/07/17 02:24:13;;;;;;;0.90;0.90;;;12.20;99.90;;;;;;5015270;28;20202;-74
2022/07/17 02:26:38;;;;;;;7.00;1.67;;;12.10;99.90;;;;;;5015551;28;20259;-74
2022/07/17 02:29:04;;;;;;;1.33;1.17;;;12.10;99.90;;;;;;5013954;28;20203;-74
2022/07/17 02:31:30;;;;;;;1.47;1.00;;;12.00;99.90;;;;;;5015465;28;20173;-73
2022/07/17 02:33:55;;;;;;;1.10;1.00;;;11.90;99.90;;;;;;5015436;28;20458;-73
2022/07/17 02:36:21;;;;;;;3.90;1.37;;;12.10;99.90;;;;;;5015365;28;20164;-73
2022/07/17 02:38:48;;;;;;;2.33;2.00;;;12.00;99.90;;;;;;5015558;28;20243;-74
2022/07/17 02:41:13;;;;;;;2.10;2.00;;;11.90;99.90;;;;;;5015925;28;20234;-73
2022/07/17 02:43:39;;;;;;;7.40;1.30;;;12.10;99.90;;;;;;5015532;28;20906;-73
2022/07/17 02:46:04;;;;;;;0.87;0.87;;;12.00;99.90;;;;;;5014731;28;20209;-73
2022/07/17 02:48:30;;;;;;;1.33;1.10;;;12.00;99.90;;;;;;5016835;28;20199;-74
2022/07/17 02:50:55;;;;;;;3.53;1.20;;;11.90;99.90;;;;;;5018451;28;20188;-73
2022/07/17 02:53:21;;;;;;;2.80;1.77;;;11.90;99.90;;;;;;5019635;28;20169;-73
2022/07/17 02:55:47;;;;;;;2.40;1.10;;;11.90;99.90;;;;;;5016001;28;20212;-73
2022/07/17 02:58:13;;;;;;;2.63;1.70;;;11.90;99.90;;;;;;5015145;28;20310;-73
2022/07/17 03:00:39;;;;;;;2.40;1.00;;;11.90;99.90;;;;;;5014163;28;20477;-74
2022/07/17 03:03:05;;;;;;;7.50;1.17;;;11.90;99.90;;;;;;5014687;28;20164;-73
2022/07/17 03:05:30;;;;;;;2.80;1.50;;;11.90;99.90;;;;;;5014290;28;20230;-73
2022/07/17 03:07:56;;;;;;;1.20;1.10;;;11.90;99.90;;;;;;5014929;28;20196;-74
2022/07/17 03:10:22;;;;;;;2.13;1.10;;;11.80;99.90;;;;;;5014118;28;20223;-73
2022/07/17 03:12:48;;;;;;;2.07;1.13;;;11.80;99.90;;;;;;5013370;28;20172;-73
2022/07/17 03:15:13;;;;;;;1.93;1.43;;;11.80;99.90;;;;;;5014617;28;20459;-73
2022/07/17 03:17:39;;;;;;;2.60;1.20;;;11.90;99.90;;;;;;5015060;28;20283;-73
2022/07/17 03:20:06;;;;;;;2.90;1.30;;;11.80;99.90;;;;;;5014724;28;20605;-74
2022/07/17 03:22:32;;;;;;;1.57;1.20;;;11.70;99.90;;;;;;5015326;28;20502;-74
2022/07/17 03:24:57;;;;;;;2.40;1.50;;;11.70;99.90;;;;;;5015452;28;20411;-74
2022/07/17 03:27:23;;;;;;;3.10;1.10;;;11.70;99.90;;;;;;5015031;28;20176;-73
2022/07/17 03:29:49;;;;;;;1.83;1.20;;;11.70;99.90;;;;;;5015157;28;20262;-73
2022/07/17 03:32:15;;;;;;;1.53;1.17;;;11.60;99.90;;;;;;5015784;28;20176;-74
2022/07/17 03:34:41;;;;;;;1.63;1.53;;;11.70;99.90;;;;;;5015486;28;20206;-74
2022/07/17 03:37:07;;;;;;;2.20;1.27;;;11.70;99.90;;;;;;5015314;28;20439;-74
2022/07/17 03:39:32;;;;;;;2.13;1.20;;;11.70;99.90;;;;;;5015297;28;20188;-74
2022/07/17 03:41:58;;;;;;;3.23;1.30;;;11.70;99.90;;;;;;5015181;28;20238;-74
2022/07/17 03:44:23;;;;;;;1.40;1.30;;;11.70;99.90;;;;;;5014731;28;20211;-73
2022/07/17 03:46:49;;;;;;;4.73;1.37;;;11.70;99.90;;;;;;5015582;28;20173;-73
2022/07/17 03:49:14;;;;;;;1.20;1.10;;;11.80;99.90;;;;;;5016096;28;20196;-73
2022/07/17 03:51:40;;;;;;;1.87;1.03;;;11.80;99.90;;;;;;5015031;28;20534;-74
2022/07/17 03:54:06;;;;;;;2.40;1.20;;;11.80;99.90;;;;;;5015068;28;20210;-74
2022/07/17 03:56:31;;;;;;;1.80;0.90;;;11.80;99.90;;;;;;5015391;28;20172;-74
2022/07/17 03:58:57;;;;;;;2.77;1.40;;;11.80;99.90;;;;;;5013962;28;20623;-73
2022/07/17 04:01:23;;;;;;;1.23;1.10;;;11.90;99.90;;;;;;5014974;28;20623;-73
2022/07/17 04:03:48;;;;;;;2.00;1.33;;;11.80;99.90;;;;;;5015094;28;20191;-73
2022/07/17 04:06:14;;;;;;;1.83;1.60;;;11.90;99.90;;;;;;5015247;28;20639;-74
2022/07/17 04:08:39;;;;;;;1.47;1.10;;;11.90;99.90;;;;;;5016341;28;20246;-74
2022/07/17 04:11:05;;;;;;;4.50;1.20;;;11.90;99.90;;;;;;5016907;28;20173;-74
2022/07/17 04:13:31;;;;;;;1.53;1.43;;;12.00;99.90;;;;;;5016805;28;20168;-73
2022/07/17 04:15:56;;;;;;;2.23;1.33;;;12.00;99.90;;;;;;5016079;28;20204;-73
2022/07/17 04:18:24;;;;;;;1.30;1.17;;;12.10;99.90;;;;;;5014656;28;20199;-73
2022/07/17 04:20:51;;;;;;;3.70;1.43;;;12.10;99.90;;;;;;5013242;28;20172;-74
2022/07/17 04:23:17;;;;;;;1.83;1.00;;;12.10;99.90;;;;;;5015580;28;20411;-73
2022/07/17 04:25:42;;;;;;;2.73;1.53;;;12.20;99.90;;;;;;5015362;28;20957;-73
2022/07/17 04:28:09;;;;;;;6.50;1.97;;;12.30;99.90;;;;;;5014335;28;20195;-74
2022/07/17 04:30:35;;;;;;;1.83;1.70;;;12.40;99.90;;;;;;5014306;28;20648;-73
2022/07/17 04:33:00;;;;;;;2.47;1.20;;;12.50;99.90;;;;;;5014634;28;20411;-73
2022/07/17 04:35:27;;;;;;;3.73;1.10;;;13.00;99.90;;;;;;5015272;28;20506;-73
2022/07/17 04:37:52;;;;;;;7.00;1.20;;;13.30;99.90;;;;;;5016714;28;20169;-72
2022/07/17 04:40:18;;;;;;;3.70;1.20;;;13.90;99.90;;;;;;5013631;28;20411;-71
2022/07/17 04:42:44;;;;;;;1.00;0.90;;;14.40;99.90;;;;;;5012289;28;20659;-72
2022/07/17 04:45:10;;;;;;;6.10;1.63;;;14.40;99.90;;;;;;5012395;28;21108;-72
2022/07/17 04:47:38;;;;;;;2.77;1.30;;;14.20;99.90;;;;;;5012401;28;20639;-73
2022/07/17 04:50:04;;;;;;;1.57;1.27;;;14.00;99.90;;;;;;5012190;28;20656;-72
2022/07/17 04:52:30;;;;;;;3.80;2.40;;;13.80;99.90;;;;;;5012352;28;20805;-73
2022/07/17 04:54:55;;;;;;;1.50;1.03;;;14.00;99.90;;;;;;5012203;28;20483;-74
2022/07/17 04:57:21;;;;;;;4.90;1.30;;;13.90;99.90;;;;;;5011964;28;20272;-72
2022/07/17 04:59:46;;;;;;;2.23;1.37;;;13.90;99.90;;;;;;5011699;28;20682;-71
2022/07/17 05:02:12;;;;;;;1.60;1.50;;;14.60;99.90;;;;;;5011629;28;20235;-72
2022/07/17 05:04:37;;;;;;;1.43;1.03;;;14.80;99.90;;;;;;5011918;28;20187;-72
2022/07/17 05:07:03;;;;;;;3.57;1.20;;;15.50;99.90;;;;;;5012894;28;20193;-73
2022/07/17 05:09:29;;;;;;;1.40;1.30;;;15.80;99.90;;;;;;5013626;28;20266;-73
2022/07/17 05:11:54;;;;;;;1.30;1.07;;;15.90;99.90;;;;;;5013271;28;20296;-73
2022/07/17 05:14:20;;;;;;;1.87;0.90;;;15.60;99.90;;;;;;5012388;28;20226;-73
2022/07/17 05:16:45;;;;;;;1.67;1.00;;;16.10;99.90;;;;;;5012430;28;20170;-74
2022/07/17 05:19:11;;;;;;;2.40;0.90;;;16.00;99.90;;;;;;5013028;28;20188;-72
2022/07/17 05:21:36;;;;;;;1.13;1.00;;;16.60;99.90;;;;;;5013254;28;20177;-73
2022/07/17 05:24:02;;;;;;;4.33;0.90;;;16.80;99.90;;;;;;5013385;28;20731;-73
2022/07/17 05:26:28;;;;;;;4.07;1.27;;;16.90;99.90;;;;;;5016591;28;20644;-74
2022/07/17 05:28:53;;;;;;;3.90;0.80;;;16.70;99.90;;;;;;5017500;28;20196;-73
2022/07/17 05:31:19;;;;;;;1.70;0.90;;;17.00;99.90;;;;;;5017245;28;20654;-73
2022/07/17 05:33:44;;;;;;;1.93;1.30;;;16.90;99.90;;;;;;5016466;28;20606;-73
2022/07/17 05:36:10;;;;;;;6.00;1.17;;;17.20;99.90;;;;;;5015776;28;20172;-73
2022/07/17 05:38:37;;;;;;;2.10;1.07;;;17.80;99.90;;;;;;5015512;28;20232;-73
2022/07/17 05:41:02;;;;;;;1.80;1.00;;;18.30;99.90;;;;;;5015639;28;20262;-74
2022/07/17 05:43:28;;;;;;;1.47;1.10;;;18.30;99.90;;;;;;5015346;28;20450;-74
2022/07/17 05:45:54;;;;;;;2.10;0.90;;;18.20;99.90;;;;;;5014917;28;20547;-73
2022/07/17 05:48:21;;;;;;;1.90;0.90;;;17.60;99.90;;;;;;5016043;28;20241;-73
2022/07/17 05:50:46;;;;;;;1.23;0.90;;;17.40;99.90;;;;;;5015055;28;20909;-74
2022/07/17 05:53:14;;;;;;;1.43;0.97;;;18.40;99.90;;;;;;5015353;28;20409;-73
2022/07/17 05:55:39;;;;;;;1.60;1.00;;;19.00;99.90;;;;;;5015182;28;20200;-74
2022/07/17 05:58:05;;;;;;;3.00;1.10;;;18.80;99.90;;;;;;5015086;28;20447;-74
2022/07/17 06:00:30;;;;;;;2.23;1.03;;;18.50;99.90;;;;;;5015864;28;20221;-74
2022/07/17 06:02:56;;;;;;;3.33;1.33;;;19.20;99.90;;;;;;5016342;28;20169;-74
2022/07/17 06:05:22;;;;;;;1.57;0.70;;;19.80;99.90;;;;;;5015953;28;20753;-75
2022/07/17 06:07:48;;;;;;;2.60;0.90;;;19.00;99.90;;;;;;5016289;28;20630;-75
2022/07/17 06:10:13;;;;;;;3.00;1.10;;;18.30;99.90;;;;;;5016355;28;20172;-74
2022/07/17 06:12:39;;;;;;;1.73;0.80;;;18.20;99.90;;;;;;5016768;28;20169;-74
2022/07/17 06:15:05;;;;;;;3.27;1.67;;;17.90;99.90;;;;;;5015930;28;20280;-74
2022/07/17 06:17:31;;;;;;;3.43;1.30;;;18.10;99.90;;;;;;5016059;28;20167;-74
2022/07/17 06:19:56;;;;;;;3.23;1.20;;;18.20;99.90;;;;;;5016495;28;20435;-74
2022/07/17 06:22:22;;;;;;;1.23;1.00;;;18.60;99.90;;;;;;5018950;28;20218;-73
2022/07/17 06:24:48;;;;;;;1.57;0.90;;;18.60;99.90;;;;;;5021018;28;20249;-73
2022/07/17 06:27:14;;;;;;;1.07;0.90;;;19.60;99.90;;;;;;5027741;28;20206;-74
2022/07/17 06:29:40;;;;;;;2.17;1.20;;;19.90;99.90;;;;;;5024862;28;20407;-74
2022/07/17 06:32:06;;;;;;;4.30;1.10;;;20.60;99.80;;;;;;5019226;28;20259;-74
2022/07/17 06:34:31;;;;;;;0.77;0.77;;;20.30;99.20;;;;;;5016479;28;20573;-74
2022/07/17 06:36:57;;;;;;;1.70;0.77;;;19.10;99.90;;;;;;5014339;28;20172;-74
2022/07/17 06:39:23;;;;;;;1.03;0.80;;;19.90;99.10;;;;;;5015344;28;20187;-74
2022/07/17 06:41:49;;;;;;;2.90;1.10;;;19.60;99.20;;;;;;5015152;28;20433;-75
2022/07/17 06:44:14;;;;;;;1.20;0.77;;;20.10;98.30;;;;;;5015104;28;20259;-75
2022/07/17 06:46:40;;;;;;;3.70;1.03;;;18.50;99.90;;;;;;5014810;28;20173;-73
2022/07/17 06:49:05;;;;;;;3.80;0.90;;;18.90;99.80;;;;;;5015568;28;20195;-74
2022/07/17 06:51:31;;;;;;;1.30;1.07;;;19.90;98.10;;;;;;5016493;28;20172;-75
2022/07/17 06:53:57;;;;;;;2.07;0.90;;;19.50;98.50;;;;;;5016645;28;20233;-73
2022/07/17 06:56:22;;;;;;;3.33;1.50;;;18.60;99.50;;;;;;5016542;28;20167;-73
2022/07/17 06:58:48;;;;;;;1.03;0.90;;;18.00;99.90;;;;;;5015292;28;20568;-73
2022/07/17 07:01:13;;;;;;;0.90;0.80;;;18.00;99.90;;;;;;5013598;28;20163;-73
2022/07/17 07:03:39;;;;;;;1.60;1.00;;;17.80;99.90;;;;;;5013263;28;20166;-72
2022/07/17 07:06:04;;;;;;;1.07;0.97;;;18.40;99.90;;;;;;5011840;28;20173;-73
2022/07/17 07:08:30;;;;;;;1.30;1.07;;;18.60;99.90;;;;;;5013174;28;20207;-72
2022/07/17 07:10:55;;;;;;;1.80;1.10;;;18.80;99.90;;;;;;5013169;28;20646;-73
2022/07/17 07:13:21;;;;;;;1.70;0.93;;;19.10;99.90;;;;;;5013253;28;20176;-73
2022/07/17 07:15:47;;;;;;;2.90;1.10;;;18.70;99.70;;;;;;5012869;28;20205;-72
2022/07/17 07:18:12;;;;;;;2.50;1.20;;;17.90;99.90;;;;;;5013275;28;20187;-73
2022/07/17 07:20:38;;;;;;;2.60;1.07;;;17.90;99.90;;;;;;5013875;28;20661;-73
2022/07/17 07:23:03;;;;;;;2.37;0.80;;;17.90;99.90;;;;;;5014450;28;20271;-74
2022/07/17 07:25:29;;;;;;;1.53;1.00;;;17.10;99.90;;;;;;5015700;28;20223;-73
2022/07/17 07:27:54;;;;;;;1.27;0.93;;;18.10;99.90;;;;;;5014227;28;20184;-73
2022/07/17 07:30:20;;;;;;;2.07;0.90;;;18.30;99.90;;;;;;5013669;28;20228;-73
2022/07/17 07:32:45;;;;;;;1.83;1.00;;;17.90;99.90;;;;;;5013215;28;20206;-73
2022/07/17 07:35:11;;;;;;;1.73;1.03;;;17.80;99.90;;;;;;5012717;28;20718;-73
2022/07/17 07:37:37;;;;;;;1.20;1.00;;;18.10;99.90;;;;;;5012651;28;20174;-73
2022/07/17 07:40:04;;;;;;;2.83;2.30;;;18.80;99.90;;;;;;5012699;28;20180;-73
2022/07/17 07:42:30;;;;;;;2.53;1.30;;;18.80;99.90;;;;;;5013207;28;20459;-73
2022/07/17 07:44:55;;;;;;;3.03;1.00;;;18.60;99.90;;;;;;5012491;28;20428;-72
2022/07/17 07:47:21;;;;;;;0.90;0.80;;;18.60;99.90;;;;;;5012484;28;20178;-73
2022/07/17 07:49:46;;;;;;;2.27;1.17;;;18.70;99.90;;;;;;5012609;28;20739;-73
2022/07/17 07:52:12;;;;;;;1.47;1.00;;;18.50;99.90;;;;;;5011321;28;20685;-73
2022/07/17 07:54:38;;;;;;;1.50;0.70;;;17.80;99.90;;;;;;5012538;28;20294;-72
2022/07/17 07:57:03;;;;;;;3.77;1.73;;;18.10;99.90;;;;;;5012310;28;20223;-73
2022/07/17 07:59:33;;;;;;;4.63;2.60;;;18.20;99.90;;;;;;5012319;28;20206;-73
2022/07/17 08:01:59;;;;;;;3.33;1.47;;;18.30;99.90;;;;;;5012442;28;20168;-73
2022/07/17 08:04:25;;;;;;;1.47;0.90;;;18.10;99.90;;;;;;5012309;28;20417;-73
2022/07/17 08:06:50;;;;;;;1.70;1.30;;;17.70;99.90;;;;;;5012237;28;20918;-73
2022/07/17 08:09:16;;;;;;;3.30;1.80;;;18.20;99.90;;;;;;5012616;28;20598;-73
2022/07/17 08:11:42;;;;;;;3.47;1.80;;;18.40;99.90;;;;;;5016206;28;20637;-73
2022/07/17 08:14:08;;;;;;;4.43;2.50;;;18.50;99.90;;;;;;5019372;28;20218;-73
2022/07/17 08:16:34;;;;;;;5.93;3.37;;;18.50;99.90;;;;;;5012499;28;20176;-73
2022/07/17 08:18:59;;;;;;;4.77;1.47;;;18.20;99.90;;;;;;5012236;28;20475;-73
2022/07/17 08:21:25;;;;;;;3.70;2.07;;;17.90;99.90;;;;;;5012164;28;20414;-73
2022/07/17 08:23:50;;;;;;;1.90;1.40;;;18.00;99.90;;;;;;5012099;28;20224;-73
2022/07/17 08:26:16;;;;;;;1.43;1.03;;;18.10;99.90;;;;;;5012050;28;20234;-74
2022/07/17 08:28:41;;;;;;;1.30;1.20;;;17.80;99.90;;;;;;5011845;28;20190;-73
2022/07/17 08:31:07;;;;;;;0.90;0.80;;;18.00;99.90;;;;;;5012046;28;20166;-74
2022/07/17 08:33:32;;;;;;;2.83;1.23;;;18.20;99.90;;;;;;5012005;28;20181;-73
2022/07/17 08:35:58;;;;;;;1.43;1.30;;;18.70;99.90;;;;;;5011734;28;20214;-73
2022/07/17 08:38:24;;;;;;;1.80;1.27;;;18.10;99.90;;;;;;5011903;28;20280;-73
2022/07/17 08:40:52;;;;;;;2.53;1.20;;;18.50;99.90;;;;;;5012045;28;20173;-73
2022/07/17 08:43:18;;;;;;;2.40;2.20;;;19.00;99.90;;;;;;5011958;28;20179;-73
2022/07/17 08:45:44;;;;;;;1.40;1.00;;;18.60;99.90;;;;;;5011760;28;20473;-73
2022/07/17 08:48:13;;;;;;;3.00;1.10;;;19.00;99.90;;;;;;5011687;28;20200;-73
2022/07/17 08:50:40;;;;;;;2.73;1.13;;;20.00;99.90;;;;;;5011925;28;20417;-73
2022/07/17 08:53:07;;;;;;;2.00;1.40;;;20.40;98.60;;;;;;5012231;28;20465;-73
2022/07/17 08:55:32;;;;;;;1.37;0.80;;;20.50;99.20;;;;;;5011569;28;20466;-73
2022/07/17 08:57:58;;;;;;;5.37;1.33;;;19.80;98.60;;;;;;5011483;28;20449;-73
2022/07/17 09:00:25;;;;;;;1.87;1.30;;;19.50;99.40;;;;;;5014450;28;20565;-73
2022/07/17 09:02:59;;;;;;;5.50;1.50;;;19.40;99.80;;;;;;5015527;28;20180;-73
2022/07/17 09:05:28;;;;;;;3.10;1.60;;;19.20;99.90;;;;;;5015514;28;20415;-74
2022/07/17 09:07:54;;;;;;;2.80;1.00;;;19.40;99.70;;;;;;5015497;28;20416;-72
2022/07/17 09:10:30;;;;;;;2.07;1.10;;;19.50;99.70;;;;;;5015276;28;20409;-72
2022/07/17 09:12:56;;;;;;;1.00;0.80;;;19.70;99.40;;;;;;5015410;28;20182;-72
2022/07/17 09:15:21;;;;;;;2.80;1.57;;;20.00;98.90;;;;;;5015082;28;20459;-73
2022/07/17 09:17:52;;;;;;;4.70;1.30;;;20.70;98.80;;;;;;5015240;28;20175;-73
2022/07/17 09:20:19;;;;;;;2.10;0.90;;;22.20;96.50;;;;;;5015453;28;20545;-73
2022/07/17 09:22:54;;;;;;;1.30;0.90;;;20.80;96.90;;;;;;5015284;28;20400;-73
2022/07/17 09:25:35;;;;;;;6.43;3.67;;;21.60;97.50;;;;;;5015217;28;20465;-73
2022/07/17 09:28:03;;;;;;;4.03;1.30;;;22.30;95.60;;;;;;5015391;28;20425;-73
2022/07/17 09:30:29;;;;;;;2.23;1.10;;;23.10;94.10;;;;;;5015246;28;20921;-73
2022/07/17 09:32:55;;;;;;;1.83;1.10;;;21.30;93.90;;;;;;5015178;28;20411;-73
2022/07/17 09:35:23;;;;;;;2.10;1.33;;;22.30;94.00;;;;;;5015210;28;20449;-73
2022/07/17 09:37:52;;;;;;;1.33;1.00;;;20.00;95.30;;;;;;5015008;28;20436;-73
2022/07/17 09:43:03;;;;;;;1.53;1.07;;;20.70;96.10;;;;;;5014391;28;20402;-73
2022/07/17 09:45:32;;;;;;;2.27;1.10;;;20.50;95.50;;;;;;5016387;28;20852;-73
2022/07/17 09:47:58;;;;;;;2.93;1.00;;;20.80;96.00;;;;;;5015590;28;20194;-72
2022/07/17 09:50:25;;;;;;;2.00;1.10;;;21.10;95.40;;;;;;5015299;28;20991;-73
2022/07/17 09:52:55;;;;;;;1.40;0.90;;;21.60;94.80;;;;;;5014612;28;20406;-73
2022/07/17 09:55:22;;;;;;;2.50;1.00;;;20.70;96.30;;;;;;5014707;28;20454;-73
2022/07/17 09:57:48;;;;;;;1.40;1.30;;;20.90;95.30;;;;;;5015875;28;20432;-73
2022/07/17 10:00:15;;;;;;;2.37;1.17;;;19.80;96.60;;;;;;5016871;28;20463;-73
2022/07/17 10:02:42;;;;;;;1.83;1.03;;;19.80;97.70;;;;;;5014917;28;20412;-73
2022/07/17 10:05:15;;;;;;;1.30;1.00;;;20.40;95.20;;;;;;5014712;28;20405;-73
2022/07/17 10:07:47;;;;;;;1.03;0.90;;;20.70;95.50;;;;;;5014251;28;20926;-73
2022/07/17 10:10:15;;;;;;;3.50;1.13;;;20.40;95.90;;;;;;5013871;28;20950;-73
2022/07/17 10:12:44;;;;;;;2.50;1.30;;;20.70;95.80;;;;;;5014165;28;20412;-74
2022/07/17 10:15:10;;;;;;;2.50;0.90;;;20.10;96.10;;;;;;5014113;28;20603;-74
2022/07/17 10:17:36;;;;;;;2.23;1.00;;;21.00;96.10;;;;;;5014065;28;20501;-73
2022/07/17 10:20:04;;;;;;;1.60;1.20;;;20.70;96.00;;;;;;5014170;28;20442;-74
2022/07/17 10:22:41;;;;;;;2.00;1.20;;;21.40;95.10;;;;;;5014438;28;20161;-73
2022/07/17 10:25:11;;;;;;;1.90;1.00;;;21.60;95.00;;;;;;5014008;28;20442;-73
2022/07/17 10:27:45;;;;;;;3.50;1.23;;;21.80;94.60;;;;;;5014104;28;20892;-73
2022/07/17 10:30:11;;;;;;;2.43;1.00;;;21.80;94.20;;;;;;5014201;28;20423;-73
2022/07/17 10:32:38;;;;;;;7.10;1.13;;;21.40;95.40;;;;;;5014387;28;20414;-73
2022/07/17 10:35:10;;;;;;;1.33;1.03;;;21.00;95.20;;;;;;5015421;28;20484;-74
2022/07/17 10:37:36;;;;;;;1.53;0.90;;;21.40;94.40;;;;;;5014957;28;20412;-73
2022/07/17 10:40:16;;;;;;;2.70;1.03;;;21.40;94.40;;;;;;5014673;28;20425;-75
2022/07/17 10:42:43;;;;;;;1.80;1.00;;;21.00;94.00;;;;;;5014059;28;20513;-72
2022/07/17 10:45:11;;;;;;;1.10;1.00;;;21.60;94.10;;;;;;5013356;28;20973;-73
2022/07/17 10:48:03;;;;;;;4.53;1.40;;;21.60;94.10;;;;;;5013779;28;20412;-73
2022/07/17 10:50:40;;;;;;;3.10;1.30;;;21.30;94.50;;;;;;5013668;28;20411;-73
2022/07/17 10:53:16;;;;;;;1.07;0.97;;;21.60;93.70;;;;;;5013514;28;20414;-72
2022/07/17 10:55:44;;;;;;;1.50;1.03;;;20.90;93.90;;;;;;5013354;28;20476;-73
2022/07/17 10:58:37;;;;;;;4.97;1.00;;;20.70;94.00;;;;;;5013086;28;20963;-72
2022/07/17 11:01:13;;;;;;;1.57;1.13;;;21.20;94.30;;;;;;5010091;28;20941;-73
2022/07/17 11:03:46;;;;;;;1.90;1.03;;;21.40;93.70;;;;;;5013589;28;20393;-73
2022/07/17 11:06:25;;;;;;;2.73;1.10;;;21.10;93.60;;;;;;5013030;28;20415;-72
2022/07/17 11:08:52;;;;;;;2.23;1.23;;;21.30;94.00;;;;;;5013094;28;20425;-72
2022/07/17 11:11:22;;;;;;;4.67;1.30;;;20.90;93.90;;;;;;5013016;28;20471;-73
2022/07/17 11:13:47;;;;;;;3.10;2.03;;;20.40;94.90;;;;;;5013232;28;20409;-74
2022/07/17 11:16:27;;;;;;;2.60;0.97;;;21.00;94.10;;;;;;5012915;28;20454;-74
2022/07/17 11:18:55;;;;;;;1.20;1.10;;;21.00;94.30;;;;;;5011893;28;20310;-73
2022/07/17 11:21:20;;;;;;;2.77;1.60;;;20.90;94.30;;;;;;5012569;28;20412;-74
2022/07/17 11:23:56;;;;;;;1.23;1.13;;;21.30;93.50;;;;;;5012596;28;20405;-73
2022/07/17 11:26:22;;;;;;;3.00;1.10;;;21.00;93.60;;;;;;5012913;28;20215;-73
2022/07/17 11:28:49;;;;;;;4.93;1.40;;;21.20;93.60;;;;;;5013049;28;20482;-73
2022/07/17 11:31:16;;;;;;;9.20;1.57;;;21.60;93.00;;;;;;5013103;28;20843;-73
2022/07/17 11:34:08;;;;;;;3.20;1.20;;;21.80;92.70;;;;;;5012735;28;20967;-73
2022/07/17 11:36:39;;;;;;;1.90;1.30;;;21.60;93.30;;;;;;5012700;28;20415;-73
2022/07/17 11:39:11;;;;;;;5.23;1.57;;;21.10;93.70;;;;;;5012663;28;20421;-73
2022/07/17 11:41:50;;;;;;;1.47;1.30;;;21.10;93.80;;;;;;5012822;28;20429;-73
2022/07/17 11:44:19;;;;;;;2.10;1.27;;;21.40;93.10;;;;;;5013677;28;20413;-73
2022/07/17 11:46:48;;;;;;;2.60;1.63;;;21.80;92.80;;;;;;5022133;28;20413;-73
2022/07/17 11:49:35;;;;;;;5.70;1.10;;;22.10;92.50;;;;;;5014033;28;20444;-73
2022/07/17 11:52:17;;;;;;;3.60;1.40;;;21.60;93.30;;;;;;5011535;28;20412;-73
2022/07/17 11:54:50;;;;;;;2.10;1.63;;;21.70;93.20;;;;;;5012245;28;20603;-73
2022/07/17 11:57:17;;;;;;;3.73;1.60;;;21.30;93.60;;;;;;5012785;28;20407;-73
2022/07/17 11:59:43;;;;;;;4.10;1.20;;;21.10;93.50;;;;;;5012392;28;20599;-74
2022/07/17 12:02:24;;;;;;;4.10;2.70;;;21.60;93.70;;;;;;5011126;28;20797;-73
2022/07/17 12:04:54;;;;;;;1.83;1.37;;;21.80;93.10;;;;;;5012332;28;20408;-72
2022/07/17 12:07:22;;;;;;;5.10;1.67;;;21.90;92.80;;;;;;5012241;28;20453;-73
2022/07/17 12:09:48;;;;;;;1.20;1.10;;;21.60;92.70;;;;;;5012257;28;20429;-72
2022/07/17 12:12:27;;;;;;;4.47;1.50;;;21.80;93.00;;;;;;5011932;28;20532;-73
2022/07/17 12:14:58;;;;;;;1.33;1.00;;;21.60;92.40;;;;;;5011626;28;21023;-72
2022/07/17 12:17:25;;;;;;;1.40;1.30;;;21.80;92.70;;;;;;5011858;28;20543;-73
2022/07/17 12:19:51;;;;;;;1.20;1.00;;;22.00;91.70;;;;;;5011662;28;20423;-72
2022/07/17 12:22:17;;;;;;;2.43;1.07;;;21.90;90.80;;;;;;5011767;28;20408;-72
2022/07/17 12:24:45;;;;;;;1.00;0.90;;;21.90;90.40;;;;;;5011571;28;20749;-72
2022/07/17 12:27:13;;;;;;;1.40;1.30;;;21.90;90.60;;;;;;5011519;28;20168;-73
2022/07/17 12:29:40;;;;;;;1.67;1.00;;;21.90;90.50;;;;;;5011689;28;20428;-73
2022/07/17 12:32:11;;;;;;;2.30;1.00;;;22.00;90.20;;;;;;5011533;28;20416;-73
2022/07/17 12:34:45;;;;;;;7.43;1.10;;;21.80;90.80;;;;;;5014528;28;20511;-73
2022/07/17 12:37:11;;;;;;;3.83;1.23;;;22.10;90.50;;;;;;5014315;28;20414;-73
2022/07/17 12:39:37;;;;;;;1.77;1.20;;;22.00;90.70;;;;;;5015439;28;20432;-73
2022/07/17 12:42:03;;;;;;;1.50;0.93;;;22.00;90.80;;;;;;5015702;28;20405;-73
2022/07/17 12:44:29;;;;;;;5.70;1.00;;;21.70;90.30;;;;;;5015493;28;20257;-73
2022/07/17 12:46:54;;;;;;;1.47;1.10;;;21.90;90.10;;;;;;5015355;28;20441;-73
2022/07/17 12:49:20;;;;;;;2.80;0.90;;;21.80;88.80;;;;;;5015385;28;20307;-72